createdAt,value
2017-07-28T00:00:39.911Z,19.81
2017-07-28T00:01:39.933Z,19.84
2017-07-28T00:02:39.956Z,19.82
2017-07-28T00:03:39.976Z,19.82
2017-07-28T00:04:40.001Z,19.84
2017-07-28T00:05:40.018Z,19.81
2017-07-28T00:06:39.728Z,19.7
2017-07-28T00:07:39.754Z,19.71
2017-07-28T00:08:40.289Z,19.81
2017-07-28T00:09:40.122Z,19.74
2017-07-28T00:10:40.136Z,19.71
2017-07-28T00:11:40.164Z,19.74
2017-07-28T00:12:40.180Z,19.79
2017-07-28T00:13:39.902Z,19.82
2017-07-28T00:14:40.234Z,19.7
2017-07-28T00:15:39.933Z,19.84
2017-07-28T00:16:40.292Z,19.73
2017-07-28T00:17:40.299Z,19.73
2017-07-28T00:18:40.321Z,19.71
2017-07-28T00:19:40.365Z,19.67
2017-07-28T00:20:40.361Z,19.7
2017-07-28T00:21:40.392Z,19.7
2017-07-28T00:22:40.418Z,19.67
2017-07-28T00:23:40.434Z,19.69
2017-07-28T00:24:40.460Z,19.69
2017-07-28T00:25:40.481Z,19.64
2017-07-28T00:26:40.506Z,19.69
2017-07-28T00:27:40.530Z,19.66
2017-07-28T00:28:40.548Z,19.67
2017-07-28T00:29:40.576Z,19.63
2017-07-28T00:30:40.593Z,19.7
2017-07-28T00:31:40.628Z,19.66
2017-07-28T00:32:40.640Z,19.64
2017-07-28T00:33:40.663Z,19.7
2017-07-28T00:34:40.683Z,19.64
2017-07-28T00:35:40.711Z,19.58
2017-07-28T00:36:40.730Z,19.58
2017-07-28T00:37:40.760Z,19.62
2017-07-28T00:38:40.776Z,19.58
2017-07-28T00:39:40.800Z,19.54
2017-07-28T00:40:40.824Z,19.62
2017-07-28T00:41:40.850Z,19.58
2017-07-28T00:42:40.868Z,19.56
2017-07-28T00:43:40.573Z,19.54
2017-07-28T00:44:40.913Z,19.66
2017-07-28T00:45:40.923Z,19.54
2017-07-28T00:46:40.943Z,19.59
2017-07-28T00:47:40.969Z,19.49
2017-07-28T00:48:41.104Z,19.45
2017-07-28T00:49:41.016Z,19.55
2017-07-28T00:50:41.040Z,19.56
2017-07-28T00:51:41.076Z,19.54
2017-07-28T00:52:41.083Z,19.49
2017-07-28T00:53:41.293Z,19.52
2017-07-28T00:54:41.131Z,19.52
2017-07-28T00:55:41.153Z,19.44
2017-07-28T00:56:40.862Z,19.58
2017-07-28T00:57:41.299Z,19.58
2017-07-28T00:58:41.225Z,19.47
2017-07-28T00:59:41.267Z,19.48
2017-07-28T01:00:40.987Z,19.52
2017-07-28T01:01:40.974Z,19.48
2017-07-28T01:02:40.995Z,19.47
2017-07-28T01:03:41.332Z,19.49
2017-07-28T01:04:41.357Z,19.34
2017-07-28T01:05:41.378Z,19.48
2017-07-28T01:06:41.410Z,19.39
2017-07-28T01:07:41.431Z,19.41
2017-07-28T01:08:41.141Z,19.44
2017-07-28T01:09:41.498Z,19.41
2017-07-28T01:10:41.492Z,19.41
2017-07-28T01:11:41.522Z,19.36
2017-07-28T01:12:41.225Z,19.33
2017-07-28T01:13:41.694Z,19.33
2017-07-28T01:14:41.266Z,19.4
2017-07-28T01:15:41.693Z,19.33
2017-07-28T01:16:41.639Z,19.45
2017-07-28T01:17:41.650Z,19.41
2017-07-28T01:18:41.741Z,19.45
2017-07-28T01:19:41.703Z,19.37
2017-07-28T01:20:41.997Z,19.34
2017-07-28T01:21:41.429Z,19.36
2017-07-28T01:22:41.759Z,19.3
2017-07-28T01:23:41.469Z,19.36
2017-07-28T01:24:41.500Z,19.29
2017-07-28T01:25:41.832Z,19.3
2017-07-28T01:26:41.541Z,19.27
2017-07-28T01:27:41.887Z,19.27
2017-07-28T01:28:41.904Z,19.31
2017-07-28T01:29:41.930Z,19.33
2017-07-28T01:30:41.626Z,19.27
2017-07-28T01:31:41.969Z,19.29
2017-07-28T01:32:41.989Z,19.33
2017-07-28T01:33:42.026Z,19.26
2017-07-28T01:34:42.037Z,19.29
2017-07-28T01:35:41.753Z,19.22
2017-07-28T01:36:42.152Z,19.29
2017-07-28T01:37:41.790Z,19.29
2017-07-28T01:38:42.125Z,19.34
2017-07-28T01:39:41.830Z,19.24
2017-07-28T01:40:41.873Z,19.19
2017-07-28T01:41:42.195Z,19.18
2017-07-28T01:42:42.321Z,19.29
2017-07-28T01:43:42.239Z,19.27
2017-07-28T01:44:42.256Z,19.22
2017-07-28T01:45:42.313Z,19.21
2017-07-28T01:46:42.428Z,19.26
2017-07-28T01:47:42.536Z,19.19
2017-07-28T01:48:42.094Z,19.16
2017-07-28T01:49:42.130Z,19.14
2017-07-28T01:50:42.079Z,19.19
2017-07-28T01:51:42.109Z,19.26
2017-07-28T01:52:42.443Z,19.12
2017-07-28T01:53:42.467Z,19.22
2017-07-28T01:54:42.683Z,19.11
2017-07-28T01:55:42.509Z,19.21
2017-07-28T01:56:42.532Z,19.22
2017-07-28T01:57:42.555Z,19.11
2017-07-28T01:58:42.576Z,19.14
2017-07-28T01:59:42.598Z,19.11
2017-07-28T02:00:42.622Z,19.22
2017-07-28T02:01:42.655Z,19.08
2017-07-28T02:02:42.676Z,19.08
2017-07-28T02:03:42.691Z,19.08
2017-07-28T02:04:42.409Z,19.14
2017-07-28T02:05:42.732Z,19.18
2017-07-28T02:06:42.753Z,19.07
2017-07-28T02:07:42.775Z,19.09
2017-07-28T02:08:42.797Z,19.09
2017-07-28T02:09:42.826Z,19.08
2017-07-28T02:10:42.845Z,19.08
2017-07-28T02:11:42.873Z,19.07
2017-07-28T02:12:42.576Z,19.04
2017-07-28T02:13:42.915Z,19.09
2017-07-28T02:14:42.935Z,19.08
2017-07-28T02:15:42.969Z,19.08
2017-07-28T02:16:42.674Z,19
2017-07-28T02:17:42.695Z,19.08
2017-07-28T02:18:43.026Z,19.04
2017-07-28T02:19:43.050Z,19.07
2017-07-28T02:20:42.756Z,19
2017-07-28T02:21:42.780Z,18.99
2017-07-28T02:22:43.278Z,19.02
2017-07-28T02:23:43.135Z,19.08
2017-07-28T02:24:42.844Z,19.08
2017-07-28T02:25:43.180Z,18.99
2017-07-28T02:26:42.944Z,19.04
2017-07-28T02:27:42.916Z,18.93
2017-07-28T02:28:42.942Z,19.04
2017-07-28T02:29:42.956Z,19.02
2017-07-28T02:30:43.299Z,18.99
2017-07-28T02:31:43.106Z,18.98
2017-07-28T02:32:43.263Z,18.99
2017-07-28T02:33:43.369Z,18.92
2017-07-28T02:34:43.463Z,19.04
2017-07-28T02:35:42.775Z,18.92
2017-07-28T02:36:43.451Z,18.99
2017-07-28T02:37:43.451Z,18.93
2017-07-28T02:38:43.584Z,18.9
2017-07-28T02:39:42.870Z,18.92
2017-07-28T02:40:43.516Z,18.98
2017-07-28T02:41:43.539Z,18.96
2017-07-28T02:42:43.584Z,18.93
2017-07-28T02:43:43.583Z,19
2017-07-28T02:44:43.621Z,18.9
2017-07-28T02:45:43.625Z,19
2017-07-28T02:46:43.648Z,18.96
2017-07-28T02:47:43.361Z,18.98
2017-07-28T02:48:43.704Z,18.99
2017-07-28T02:49:43.497Z,18.88
2017-07-28T02:50:43.743Z,18.88
2017-07-28T02:51:43.769Z,19
2017-07-28T02:52:43.808Z,18.95
2017-07-28T02:53:43.919Z,18.96
2017-07-28T02:54:43.519Z,18.88
2017-07-28T02:55:43.853Z,19.02
2017-07-28T02:56:44.057Z,18.96
2017-07-28T02:57:43.688Z,18.88
2017-07-28T02:58:43.921Z,18.95
2017-07-28T02:59:43.940Z,18.93
2017-07-28T03:00:43.653Z,18.96
2017-07-28T03:01:43.992Z,18.95
2017-07-28T03:02:44.008Z,18.84
2017-07-28T03:03:44.116Z,18.92
2017-07-28T03:04:43.820Z,18.95
2017-07-28T03:05:43.822Z,18.93
2017-07-28T03:06:44.147Z,18.92
2017-07-28T03:07:44.152Z,18.9
2017-07-28T03:08:44.151Z,18.86
2017-07-28T03:09:44.177Z,18.89
2017-07-28T03:10:43.894Z,18.92
2017-07-28T03:11:44.217Z,18.88
2017-07-28T03:12:44.233Z,18.93
2017-07-28T03:13:43.934Z,18.92
2017-07-28T03:14:44.273Z,18.93
2017-07-28T03:15:44.298Z,18.88
2017-07-28T03:16:44.320Z,18.86
2017-07-28T03:17:44.343Z,18.93
2017-07-28T03:18:44.367Z,18.93
2017-07-28T03:19:44.388Z,18.89
2017-07-28T03:20:44.094Z,18.89
2017-07-28T03:21:44.430Z,18.88
2017-07-28T03:22:44.131Z,18.93
2017-07-28T03:23:44.475Z,18.8
2017-07-28T03:24:44.496Z,18.88
2017-07-28T03:25:44.217Z,18.9
2017-07-28T03:26:44.542Z,18.89
2017-07-28T03:27:44.260Z,18.86
2017-07-28T03:28:44.590Z,18.92
2017-07-28T03:29:44.612Z,18.88
2017-07-28T03:30:44.864Z,18.86
2017-07-28T03:31:44.768Z,18.89
2017-07-28T03:32:44.362Z,18.9
2017-07-28T03:33:44.378Z,18.92
2017-07-28T03:34:44.725Z,18.86
2017-07-28T03:35:44.742Z,18.84
2017-07-28T03:36:44.758Z,18.84
2017-07-28T03:37:44.801Z,18.84
2017-07-28T03:38:44.492Z,18.84
2017-07-28T03:39:44.516Z,18.86
2017-07-28T03:40:44.616Z,18.86
2017-07-28T03:41:44.871Z,18.83
2017-07-28T03:42:44.898Z,18.88
2017-07-28T03:43:44.606Z,18.86
2017-07-28T03:44:44.942Z,18.89
2017-07-28T03:45:44.961Z,18.78
2017-07-28T03:46:44.983Z,18.84
2017-07-28T03:47:45.010Z,18.84
2017-07-28T03:48:44.711Z,18.84
2017-07-28T03:49:45.054Z,18.77
2017-07-28T03:50:45.197Z,18.77
2017-07-28T03:51:45.096Z,18.78
2017-07-28T03:52:44.811Z,18.86
2017-07-28T03:53:45.371Z,18.89
2017-07-28T03:54:45.168Z,18.83
2017-07-28T03:55:45.182Z,18.84
2017-07-28T03:56:45.209Z,18.81
2017-07-28T03:57:44.910Z,18.78
2017-07-28T03:58:45.247Z,18.83
2017-07-28T03:59:45.280Z,18.83
2017-07-28T04:00:45.296Z,18.83
2017-07-28T04:01:45.314Z,18.84
2017-07-28T04:02:45.338Z,18.81
2017-07-28T04:03:45.365Z,18.8
2017-07-28T04:04:45.080Z,18.78
2017-07-28T04:05:45.401Z,18.86
2017-07-28T04:06:45.115Z,18.75
2017-07-28T04:07:45.452Z,18.77
2017-07-28T04:08:45.157Z,18.78
2017-07-28T04:09:45.527Z,18.8
2017-07-28T04:10:45.519Z,18.81
2017-07-28T04:11:45.542Z,18.77
2017-07-28T04:12:45.246Z,18.78
2017-07-28T04:13:45.580Z,18.78
2017-07-28T04:14:45.618Z,18.78
2017-07-28T04:15:45.628Z,18.81
2017-07-28T04:16:45.648Z,18.8
2017-07-28T04:17:45.670Z,18.75
2017-07-28T04:18:45.690Z,18.74
2017-07-28T04:19:45.710Z,18.77
2017-07-28T04:20:45.735Z,18.75
2017-07-28T04:21:45.765Z,18.74
2017-07-28T04:22:45.783Z,18.75
2017-07-28T04:23:45.803Z,18.74
2017-07-28T04:24:45.845Z,18.77
2017-07-28T04:25:45.846Z,18.75
2017-07-28T04:26:45.869Z,18.77
2017-07-28T04:27:45.894Z,18.74
2017-07-28T04:28:45.915Z,18.75
2017-07-28T04:29:45.937Z,18.75
2017-07-28T04:30:45.648Z,18.73
2017-07-28T04:31:45.669Z,18.74
2017-07-28T04:32:46.001Z,18.74
2017-07-28T04:33:46.031Z,18.73
2017-07-28T04:34:45.745Z,18.7
2017-07-28T04:35:46.076Z,18.66
2017-07-28T04:36:46.090Z,18.75
2017-07-28T04:37:45.793Z,18.77
2017-07-28T04:38:46.337Z,18.66
2017-07-28T04:39:46.157Z,18.7
2017-07-28T04:40:46.179Z,18.65
2017-07-28T04:41:45.887Z,18.66
2017-07-28T04:42:45.916Z,18.7
2017-07-28T04:43:46.248Z,18.73
2017-07-28T04:44:45.950Z,18.7
2017-07-28T04:45:46.305Z,18.7
2017-07-28T04:46:45.992Z,18.74
2017-07-28T04:47:46.017Z,18.7
2017-07-28T04:48:46.038Z,18.78
2017-07-28T04:49:46.068Z,18.65
2017-07-28T04:50:46.094Z,18.65
2017-07-28T04:51:46.109Z,18.7
2017-07-28T04:52:46.469Z,18.65
2017-07-28T04:53:46.484Z,18.74
2017-07-28T04:54:46.491Z,18.66
2017-07-28T04:55:46.214Z,18.66
2017-07-28T04:56:46.531Z,18.7
2017-07-28T04:57:46.653Z,18.63
2017-07-28T04:58:46.256Z,18.74
2017-07-28T04:59:46.593Z,18.8
2017-07-28T05:00:46.625Z,18.7
2017-07-28T05:01:46.651Z,18.7
2017-07-28T05:02:46.361Z,18.73
2017-07-28T05:03:46.692Z,18.73
2017-07-28T05:04:46.712Z,18.71
2017-07-28T05:05:46.741Z,18.77
2017-07-28T05:06:46.755Z,18.74
2017-07-28T05:07:46.788Z,18.77
2017-07-28T05:08:46.915Z,18.73
2017-07-28T05:09:46.555Z,18.75
2017-07-28T05:10:46.839Z,18.8
2017-07-28T05:11:46.861Z,18.75
2017-07-28T05:12:46.889Z,18.8
2017-07-28T05:13:46.903Z,18.8
2017-07-28T05:14:46.931Z,18.68
2017-07-28T05:15:46.633Z,18.73
2017-07-28T05:16:46.976Z,18.75
2017-07-28T05:17:46.994Z,18.75
2017-07-28T05:18:47.029Z,18.77
2017-07-28T05:19:47.048Z,18.74
2017-07-28T05:20:47.067Z,18.73
2017-07-28T05:21:46.455Z,18.74
2017-07-28T05:22:46.790Z,18.8
2017-07-28T05:23:47.135Z,18.81
2017-07-28T05:24:47.146Z,18.77
2017-07-28T05:25:47.179Z,18.81
2017-07-28T05:26:47.223Z,18.78
2017-07-28T05:27:47.399Z,18.84
2017-07-28T05:28:47.412Z,18.93
2017-07-28T05:29:47.268Z,18.89
2017-07-28T05:30:47.299Z,18.88
2017-07-28T05:31:47.309Z,18.9
2017-07-28T05:32:47.330Z,18.92
2017-07-28T05:33:47.034Z,18.88
2017-07-28T05:34:47.384Z,18.9
2017-07-28T05:35:47.402Z,18.83
2017-07-28T05:36:47.413Z,18.88
2017-07-28T05:37:47.442Z,18.92
2017-07-28T05:38:47.147Z,18.83
2017-07-28T05:39:47.484Z,18.86
2017-07-28T05:40:47.512Z,18.84
2017-07-28T05:41:47.527Z,18.88
2017-07-28T05:42:47.752Z,18.89
2017-07-28T05:43:47.566Z,18.93
2017-07-28T05:44:47.488Z,18.92
2017-07-28T05:45:47.304Z,18.89
2017-07-28T05:46:47.646Z,18.88
2017-07-28T05:47:47.666Z,18.9
2017-07-28T05:48:47.063Z,18.95
2017-07-28T05:49:47.701Z,18.95
2017-07-28T05:50:47.725Z,18.86
2017-07-28T05:51:47.750Z,18.9
2017-07-28T05:52:47.792Z,18.92
2017-07-28T05:53:47.476Z,18.88
2017-07-28T05:54:47.822Z,18.83
2017-07-28T05:55:47.833Z,18.89
2017-07-28T05:56:47.869Z,18.86
2017-07-28T05:57:47.878Z,18.95
2017-07-28T05:58:47.903Z,18.93
2017-07-28T05:59:47.924Z,18.93
2017-07-28T06:00:47.409Z,18.92
2017-07-28T06:01:47.666Z,18.88
2017-07-28T06:02:48.003Z,18.95
2017-07-28T06:03:47.843Z,18.88
2017-07-28T06:04:47.833Z,18.96
2017-07-28T06:05:48.061Z,18.86
2017-07-28T06:06:47.764Z,18.9
2017-07-28T06:07:48.235Z,18.95
2017-07-28T06:09:02.815Z,18.93
2017-07-28T06:09:48.142Z,18.98
2017-07-28T06:10:48.201Z,18.96
2017-07-28T06:11:47.896Z,18.99
2017-07-28T06:12:48.249Z,18.88
2017-07-28T06:13:48.230Z,18.95
2017-07-28T06:14:48.258Z,18.84
2017-07-28T06:15:48.284Z,18.9
2017-07-28T06:16:48.296Z,18.96
2017-07-28T06:17:48.326Z,18.96
2017-07-28T06:18:48.619Z,18.99
2017-07-28T06:19:48.050Z,18.92
2017-07-28T06:20:48.387Z,18.92
2017-07-28T06:21:48.415Z,18.92
2017-07-28T06:22:48.431Z,18.88
2017-07-28T06:23:48.452Z,18.9
2017-07-28T06:24:48.477Z,18.93
2017-07-28T06:25:48.505Z,19.07
2017-07-28T06:26:48.520Z,18.99
2017-07-28T06:27:48.628Z,19.02
2017-07-28T06:28:48.568Z,19.02
2017-07-28T06:29:48.601Z,18.93
2017-07-28T06:30:48.295Z,18.96
2017-07-28T06:31:48.323Z,19
2017-07-28T06:32:48.347Z,19.07
2017-07-28T06:33:48.369Z,19
2017-07-28T06:34:48.699Z,18.93
2017-07-28T06:35:48.403Z,19.04
2017-07-28T06:36:48.748Z,18.96
2017-07-28T06:37:48.454Z,18.99
2017-07-28T06:38:48.792Z,19.08
2017-07-28T06:39:48.807Z,19.02
2017-07-28T06:40:48.523Z,19.07
2017-07-28T06:41:48.543Z,19
2017-07-28T06:42:48.872Z,19.02
2017-07-28T06:43:48.583Z,18.99
2017-07-28T06:44:48.924Z,19.02
2017-07-28T06:45:48.940Z,19.11
2017-07-28T06:46:48.648Z,19.11
2017-07-28T06:47:49.109Z,19.09
2017-07-28T06:48:49.007Z,19.18
2017-07-28T06:49:49.044Z,19.24
2017-07-28T06:50:49.061Z,19.16
2017-07-28T06:51:49.181Z,19.14
2017-07-28T06:52:48.789Z,19.18
2017-07-28T06:53:49.252Z,19.27
2017-07-28T06:54:49.142Z,19.16
2017-07-28T06:55:49.164Z,19.18
2017-07-28T06:56:49.191Z,19.12
2017-07-28T06:57:48.900Z,19.16
2017-07-28T06:58:49.231Z,19.15
2017-07-28T06:59:48.949Z,19.19
2017-07-28T07:00:48.973Z,19.19
2017-07-28T07:01:49.303Z,19.19
2017-07-28T07:02:49.320Z,19.22
2017-07-28T07:03:49.025Z,19.19
2017-07-28T07:04:49.123Z,19.27
2017-07-28T07:05:49.395Z,19.27
2017-07-28T07:06:49.095Z,19.27
2017-07-28T07:07:49.427Z,19.29
2017-07-28T07:08:49.232Z,19.29
2017-07-28T07:09:49.679Z,19.27
2017-07-28T07:10:49.183Z,19.36
2017-07-28T07:11:49.211Z,19.29
2017-07-28T07:12:49.546Z,19.29
2017-07-28T07:13:49.369Z,19.3
2017-07-28T07:14:49.281Z,19.33
2017-07-28T07:15:49.291Z,19.39
2017-07-28T07:16:49.638Z,19.36
2017-07-28T07:17:49.338Z,19.4
2017-07-28T07:18:49.680Z,19.52
2017-07-28T07:19:49.073Z,19.55
2017-07-28T07:20:49.736Z,19.48
2017-07-28T07:21:49.744Z,19.51
2017-07-28T07:22:49.453Z,19.63
2017-07-28T07:23:49.800Z,19.63
2017-07-28T07:24:49.806Z,19.59
2017-07-28T07:25:49.829Z,19.64
2017-07-28T07:26:49.858Z,19.58
2017-07-28T07:27:49.892Z,19.69
2017-07-28T07:28:49.902Z,19.71
2017-07-28T07:29:49.605Z,19.73
2017-07-28T07:30:49.666Z,19.73
2017-07-28T07:31:49.964Z,19.71
2017-07-28T07:32:49.982Z,19.76
2017-07-28T07:33:49.832Z,19.84
2017-07-28T07:34:50.489Z,19.86
2017-07-28T07:35:50.064Z,19.94
2017-07-28T07:36:50.134Z,19.99
2017-07-28T07:37:50.100Z,20.07
2017-07-28T07:38:50.158Z,20.16
2017-07-28T07:39:50.146Z,20.09
2017-07-28T07:40:49.887Z,20.18
2017-07-28T07:41:50.192Z,20.16
2017-07-28T07:42:50.214Z,20.26
2017-07-28T07:43:50.247Z,20.29
2017-07-28T07:44:49.946Z,20.32
2017-07-28T07:45:50.289Z,20.4
2017-07-28T07:46:49.987Z,20.4
2017-07-28T07:47:50.128Z,20.47
2017-07-28T07:48:50.141Z,20.44
2017-07-28T07:49:50.596Z,20.48
2017-07-28T07:50:50.611Z,20.58
2017-07-28T07:51:50.424Z,20.66
2017-07-28T07:52:50.285Z,20.59
2017-07-28T07:53:50.641Z,20.74
2017-07-28T07:54:50.682Z,20.77
2017-07-28T07:55:50.212Z,20.82
2017-07-28T07:56:50.211Z,20.74
2017-07-28T07:57:50.552Z,20.92
2017-07-28T07:58:50.352Z,20.92
2017-07-28T07:59:50.607Z,20.95
2017-07-28T08:00:50.636Z,20.99
2017-07-28T08:01:50.006Z,21.14
2017-07-28T08:02:50.122Z,21.21
2017-07-28T08:03:50.686Z,21.18
2017-07-28T08:04:50.716Z,21.3
2017-07-28T08:05:50.140Z,21.32
2017-07-28T08:06:50.750Z,21.33
2017-07-28T08:07:50.909Z,21.46
2017-07-28T08:08:50.895Z,21.36
2017-07-28T08:09:50.831Z,21.39
2017-07-28T08:10:50.842Z,21.54
2017-07-28T08:11:50.869Z,21.58
2017-07-28T08:12:50.888Z,21.58
2017-07-28T08:13:50.592Z,21.58
2017-07-28T08:14:50.310Z,21.73
2017-07-28T08:15:50.958Z,21.77
2017-07-28T08:16:50.991Z,21.85
2017-07-28T08:17:51.012Z,21.88
2017-07-28T08:18:51.033Z,21.88
2017-07-28T08:19:50.748Z,22.02
2017-07-28T08:20:51.074Z,21.99
2017-07-28T08:21:50.779Z,21.98
2017-07-28T08:22:51.119Z,22.06
2017-07-28T08:23:51.139Z,22.14
2017-07-28T08:24:51.165Z,22.2
2017-07-28T08:25:50.872Z,22.29
2017-07-28T08:26:51.213Z,22.23
2017-07-28T08:27:51.236Z,22.33
2017-07-28T08:28:51.465Z,22.45
2017-07-28T08:29:51.290Z,22.5
2017-07-28T08:30:51.443Z,22.47
2017-07-28T08:31:51.333Z,22.53
2017-07-28T08:32:51.353Z,22.65
2017-07-28T08:33:51.381Z,22.59
2017-07-28T08:34:51.394Z,22.7
2017-07-28T08:35:51.426Z,22.78
2017-07-28T08:36:51.540Z,22.83
2017-07-28T08:37:51.463Z,22.87
2017-07-28T08:38:51.585Z,22.99
2017-07-28T08:39:51.611Z,22.99
2017-07-28T08:40:51.608Z,23.1
2017-07-28T08:41:51.799Z,23.28
2017-07-28T08:42:51.602Z,23.21
2017-07-28T08:43:51.291Z,23.21
2017-07-28T08:45:06.208Z,23.31
2017-07-28T08:45:51.372Z,23.24
2017-07-28T08:46:51.761Z,23.27
2017-07-28T08:47:51.784Z,23.37
2017-07-28T08:48:51.728Z,23.36
2017-07-28T08:49:51.843Z,23.5
2017-07-28T08:50:51.773Z,23.46
2017-07-28T08:51:51.504Z,23.5
2017-07-28T08:52:51.817Z,23.58
2017-07-28T08:53:51.848Z,23.59
2017-07-28T08:54:51.870Z,23.65
2017-07-28T08:55:52.011Z,23.71
2017-07-28T08:56:51.697Z,23.69
2017-07-28T08:57:51.737Z,23.77
2017-07-28T08:58:51.372Z,23.77
2017-07-28T08:59:51.364Z,23.77
2017-07-28T09:00:51.815Z,23.87
2017-07-28T09:01:52.267Z,23.91
2017-07-28T09:02:51.747Z,23.93
2017-07-28T09:03:51.996Z,24.02
2017-07-28T09:04:51.920Z,24.1
2017-07-28T09:05:51.835Z,24.11
2017-07-28T09:06:51.561Z,24.14
2017-07-28T09:07:52.003Z,24.16
2017-07-28T09:08:52.478Z,24.23
2017-07-28T09:09:52.485Z,24.23
2017-07-28T09:10:52.120Z,24.29
2017-07-28T09:11:52.567Z,24.3
2017-07-28T09:12:52.511Z,24.38
2017-07-28T09:13:52.012Z,24.38
2017-07-28T09:14:52.354Z,24.47
2017-07-28T09:15:52.383Z,24.4
2017-07-28T09:16:52.094Z,24.5
2017-07-28T09:17:52.026Z,24.53
2017-07-28T09:18:51.830Z,24.51
2017-07-28T09:19:52.499Z,24.5
2017-07-28T09:20:52.819Z,24.54
2017-07-28T09:21:52.565Z,24.54
2017-07-28T09:22:52.798Z,24.54
2017-07-28T09:23:52.371Z,24.57
2017-07-28T09:24:52.673Z,24.54
2017-07-28T09:25:52.629Z,24.65
2017-07-28T09:26:52.651Z,24.63
2017-07-28T09:27:52.333Z,24.65
2017-07-28T09:28:52.720Z,24.6
2017-07-28T09:29:52.737Z,24.66
2017-07-28T09:30:52.431Z,24.73
2017-07-28T09:31:52.960Z,24.77
2017-07-28T09:32:52.171Z,24.73
2017-07-28T09:33:52.823Z,24.84
2017-07-28T09:34:52.960Z,24.96
2017-07-28T09:35:52.877Z,24.81
2017-07-28T09:36:52.897Z,24.99
2017-07-28T09:37:52.924Z,24.98
2017-07-28T09:38:52.952Z,25.06
2017-07-28T09:39:52.894Z,25.1
2017-07-28T09:40:52.679Z,25.11
2017-07-28T09:41:53.023Z,25.16
2017-07-28T09:42:53.052Z,25.25
2017-07-28T09:43:52.883Z,25.36
2017-07-28T09:44:53.103Z,25.33
2017-07-28T09:45:52.817Z,25.41
2017-07-28T09:46:52.837Z,25.36
2017-07-28T09:47:53.175Z,25.46
2017-07-28T09:48:53.205Z,25.48
2017-07-28T09:49:53.693Z,25.55
2017-07-28T09:50:53.253Z,25.48
2017-07-28T09:51:52.959Z,25.63
2017-07-28T09:52:53.113Z,25.68
2017-07-28T09:53:53.329Z,25.72
2017-07-28T09:54:53.353Z,25.73
2017-07-28T09:55:53.381Z,25.78
2017-07-28T09:56:53.405Z,25.85
2017-07-28T09:57:53.147Z,25.9
2017-07-28T09:58:53.148Z,26
2017-07-28T09:59:53.490Z,26.05
2017-07-28T10:00:53.514Z,26.15
2017-07-28T10:01:53.539Z,26.15
2017-07-28T10:02:52.925Z,26.09
2017-07-28T10:03:53.597Z,26.18
2017-07-28T10:04:53.392Z,26.13
2017-07-28T10:05:53.758Z,26.13
2017-07-28T10:06:53.264Z,26.16
2017-07-28T10:07:53.395Z,26.18
2017-07-28T10:08:53.534Z,26.21
2017-07-28T10:09:53.166Z,26.22
2017-07-28T10:10:53.481Z,26.25
2017-07-28T10:11:53.801Z,26.21
2017-07-28T10:12:53.818Z,26.33
2017-07-28T10:13:53.919Z,26.26
2017-07-28T10:14:53.677Z,26.26
2017-07-28T10:15:53.931Z,26.34
2017-07-28T10:16:53.939Z,26.37
2017-07-28T10:17:54.056Z,26.4
2017-07-28T10:18:53.769Z,26.43
2017-07-28T10:19:54.123Z,26.43
2017-07-28T10:20:54.085Z,26.48
2017-07-28T10:21:53.771Z,26.47
2017-07-28T10:22:54.199Z,26.45
2017-07-28T10:23:54.056Z,26.43
2017-07-28T10:24:53.842Z,26.44
2017-07-28T10:25:54.175Z,26.43
2017-07-28T10:26:54.190Z,26.4
2017-07-28T10:27:54.530Z,26.25
2017-07-28T10:28:54.108Z,26.34
2017-07-28T10:29:54.389Z,26.33
2017-07-28T10:30:54.485Z,26.31
2017-07-28T10:31:54.135Z,26.29
2017-07-28T10:32:54.284Z,26.25
2017-07-28T10:33:54.555Z,26.23
2017-07-28T10:34:54.405Z,26.18
2017-07-28T10:35:54.441Z,26.07
2017-07-28T10:36:54.454Z,26.19
2017-07-28T10:37:54.167Z,26.19
2017-07-28T10:38:54.503Z,26.19
2017-07-28T10:39:54.590Z,26.1
2017-07-28T10:40:54.288Z,26.09
2017-07-28T10:41:54.608Z,26.06
2017-07-28T10:42:54.661Z,26.05
2017-07-28T10:43:54.351Z,25.99
2017-07-28T10:44:54.399Z,25.96
2017-07-28T10:45:54.955Z,25.9
2017-07-28T10:46:54.894Z,25.93
2017-07-28T10:47:54.144Z,25.88
2017-07-28T10:48:54.779Z,25.9
2017-07-28T10:49:54.803Z,25.91
2017-07-28T10:50:54.821Z,25.9
2017-07-28T10:51:54.543Z,25.91
2017-07-28T10:52:54.885Z,25.88
2017-07-28T10:53:54.900Z,25.93
2017-07-28T10:54:54.925Z,25.93
2017-07-28T10:55:54.398Z,25.98
2017-07-28T10:56:55.001Z,25.98
2017-07-28T10:57:55.049Z,25.98
2017-07-28T10:58:55.033Z,25.98
2017-07-28T10:59:54.747Z,25.98
2017-07-28T11:00:55.095Z,25.95
2017-07-28T11:01:54.717Z,25.93
2017-07-28T11:02:54.827Z,25.96
2017-07-28T11:03:55.173Z,25.98
2017-07-28T11:04:55.196Z,26.06
2017-07-28T11:05:55.134Z,26.1
2017-07-28T11:06:55.026Z,26.06
2017-07-28T11:07:55.482Z,26.13
2017-07-28T11:08:55.465Z,26.23
2017-07-28T11:09:55.469Z,26.23
2017-07-28T11:10:55.265Z,26.28
2017-07-28T11:11:55.066Z,26.31
2017-07-28T11:12:55.409Z,26.44
2017-07-28T11:13:55.650Z,26.44
2017-07-28T11:14:55.488Z,26.47
2017-07-28T11:15:54.927Z,26.41
2017-07-28T11:16:55.206Z,26.63
2017-07-28T11:17:55.672Z,26.63
2017-07-28T11:18:55.684Z,26.62
2017-07-28T11:19:55.513Z,26.73
2017-07-28T11:20:55.308Z,26.74
2017-07-28T11:21:55.361Z,26.9
2017-07-28T11:22:55.459Z,27.02
2017-07-28T11:23:55.483Z,26.99
2017-07-28T11:24:55.856Z,27.07
2017-07-28T11:25:56.051Z,27.17
2017-07-28T11:26:55.794Z,27.21
2017-07-28T11:27:55.816Z,27.29
2017-07-28T11:28:55.566Z,27.35
2017-07-28T11:29:55.566Z,27.45
2017-07-28T11:30:55.900Z,27.32
2017-07-28T11:31:55.610Z,27.49
2017-07-28T11:32:55.857Z,27.49
2017-07-28T11:33:55.680Z,27.58
2017-07-28T11:34:55.709Z,27.65
2017-07-28T11:35:56.063Z,27.73
2017-07-28T11:36:56.081Z,27.83
2017-07-28T11:37:56.103Z,27.98
2017-07-28T11:38:56.122Z,28.07
2017-07-28T11:39:56.169Z,28.02
2017-07-28T11:40:56.177Z,28.07
2017-07-28T11:41:56.199Z,28.11
2017-07-28T11:42:56.228Z,28.19
2017-07-28T11:43:56.255Z,28.26
2017-07-28T11:44:56.278Z,28.29
2017-07-28T11:45:56.327Z,28.3
2017-07-28T11:46:56.335Z,28.32
2017-07-28T11:47:56.372Z,28.32
2017-07-28T11:48:56.403Z,28.48
2017-07-28T11:49:55.801Z,28.42
2017-07-28T11:50:56.461Z,28.54
2017-07-28T11:51:56.479Z,28.51
2017-07-28T11:52:56.510Z,28.56
2017-07-28T11:53:56.548Z,28.56
2017-07-28T11:54:56.567Z,28.69
2017-07-28T11:55:56.599Z,28.69
2017-07-28T11:56:56.622Z,28.67
2017-07-28T11:57:56.650Z,28.76
2017-07-28T11:58:56.690Z,28.66
2017-07-28T11:59:56.702Z,28.67
2017-07-28T12:00:56.744Z,28.64
2017-07-28T12:01:56.767Z,28.59
2017-07-28T12:02:56.787Z,28.72
2017-07-28T12:03:56.822Z,28.66
2017-07-28T12:04:56.842Z,28.67
2017-07-28T12:05:56.575Z,28.62
2017-07-28T12:06:56.590Z,28.63
2017-07-28T12:07:56.612Z,28.62
2017-07-28T12:08:56.954Z,28.63
2017-07-28T12:09:56.677Z,28.74
2017-07-28T12:10:56.929Z,28.76
2017-07-28T12:11:56.737Z,28.84
2017-07-28T12:12:56.769Z,28.84
2017-07-28T12:13:57.098Z,28.96
2017-07-28T12:14:56.814Z,28.98
2017-07-28T12:15:57.154Z,29.04
2017-07-28T12:16:57.267Z,29.13
2017-07-28T12:17:57.152Z,29.01
2017-07-28T12:18:57.467Z,29.13
2017-07-28T12:19:57.276Z,29.01
2017-07-28T12:20:57.306Z,29.12
2017-07-28T12:21:57.327Z,29.01
2017-07-28T12:22:57.367Z,29.1
2017-07-28T12:23:57.066Z,29.16
2017-07-28T12:24:57.097Z,29.12
2017-07-28T12:25:57.514Z,29.2
2017-07-28T12:26:57.474Z,29.31
2017-07-28T12:27:57.182Z,29.24
2017-07-28T12:28:57.525Z,29.34
2017-07-28T12:29:57.569Z,29.32
2017-07-28T12:30:57.707Z,29.34
2017-07-28T12:31:57.618Z,29.44
2017-07-28T12:32:57.648Z,29.51
2017-07-28T12:33:57.473Z,29.56
2017-07-28T12:34:57.826Z,29.57
2017-07-28T12:35:57.726Z,29.65
2017-07-28T12:36:57.764Z,29.68
2017-07-28T12:37:57.916Z,29.73
2017-07-28T12:38:57.751Z,29.87
2017-07-28T12:39:57.972Z,29.9
2017-07-28T12:41:12.460Z,30.02
2017-07-28T12:41:58.006Z,30.06
2017-07-28T12:42:58.027Z,30.03
2017-07-28T12:43:58.042Z,30.25
2017-07-28T12:44:57.804Z,30.3
2017-07-28T12:46:12.595Z,30.34
2017-07-28T12:46:58.174Z,30.4
2017-07-28T12:47:58.082Z,30.46
2017-07-28T12:48:58.111Z,30.53
2017-07-28T12:49:58.145Z,30.61
2017-07-28T12:50:57.880Z,30.55
2017-07-28T12:51:57.884Z,30.73
2017-07-28T12:52:58.233Z,30.72
2017-07-28T12:53:58.269Z,30.87
2017-07-28T12:54:57.673Z,30.87
2017-07-28T12:55:58.316Z,31.07